createdAt,value
2022-09-20T00:01:09.149Z,13.43
2022-09-20T00:03:37.467Z,9.10
2022-09-20T00:06:08.620Z,9.88
2022-09-20T00:08:36.795Z,14.13
2022-09-20T00:11:06.647Z,14.93
2022-09-20T00:13:35.812Z,17.40
2022-09-20T00:16:06.270Z,8.85
2022-09-20T00:18:34.055Z,12.93
2022-09-20T00:21:01.987Z,9.30
2022-09-20T00:23:31.110Z,9.60
2022-09-20T00:26:00.285Z,14.07
2022-09-20T00:28:28.932Z,11.35
2022-09-20T00:30:57.416Z,21.75
2022-09-20T00:33:46.501Z,9.02
2022-09-20T00:36:13.790Z,8.40
2022-09-20T00:38:43.362Z,15.53
2022-09-20T00:41:11.531Z,13.65
2022-09-20T00:43:41.241Z,13.50
2022-09-20T00:46:22.005Z,8.63
2022-09-20T00:48:51.796Z,15.60
2022-09-20T00:51:26.459Z,19.48
2022-09-20T00:53:58.205Z,13.80
2022-09-20T00:56:30.520Z,9.20
2022-09-20T00:59:02.779Z,12.20
2022-09-20T01:01:31.828Z,19.08
2022-09-20T01:04:00.837Z,8.85
2022-09-20T01:06:29.322Z,8.68
2022-09-20T01:09:01.641Z,9.45
2022-09-20T01:11:31.007Z,10.48
2022-09-20T01:13:58.920Z,11.57
2022-09-20T01:16:29.065Z,11.85
2022-09-20T01:18:59.668Z,24.17
2022-09-20T01:21:29.094Z,8.63
2022-09-20T01:24:05.821Z,8.23
2022-09-20T01:27:08.879Z,8.43
2022-09-20T01:29:49.163Z,8.52
2022-09-20T01:32:21.648Z,10.35
2022-09-20T01:34:55.117Z,12.40
2022-09-20T01:37:27.214Z,17.00
2022-09-20T01:40:03.289Z,12.38
2022-09-20T01:42:34.391Z,11.35
2022-09-20T01:45:11.843Z,17.10
2022-09-20T01:47:45.984Z,8.57
2022-09-20T01:50:34.830Z,9.52
2022-09-20T01:53:35.663Z,12.52
2022-09-20T01:56:37.643Z,14.02
2022-09-20T01:59:24.768Z,17.98
2022-09-20T02:02:09.943Z,18.80
2022-09-20T02:05:00.408Z,13.52
2022-09-20T02:07:47.762Z,12.70
2022-09-20T02:10:45.456Z,19.88
2022-09-20T02:13:28.060Z,17.45
2022-09-20T02:16:40.402Z,15.00
2022-09-20T02:19:33.924Z,14.73
2022-09-20T02:22:22.112Z,12.75
2022-09-20T02:24:59.216Z,19.52
2022-09-20T02:27:36.367Z,15.50
2022-09-20T02:30:17.431Z,13.93
2022-09-20T02:33:04.900Z,15.57
2022-09-20T02:35:43.239Z,15.43
2022-09-20T02:38:26.537Z,16.60
2022-09-20T02:41:07.172Z,20.02
2022-09-20T02:43:41.649Z,14.80
2022-09-20T02:46:14.899Z,15.60
2022-09-20T02:48:49.716Z,15.45
2022-09-20T02:51:26.936Z,21.60
2022-09-20T02:54:05.990Z,19.45
2022-09-20T02:56:40.407Z,23.33
2022-09-20T02:59:17.890Z,26.42
2022-09-20T03:01:57.262Z,17.50
2022-09-20T03:04:36.024Z,22.70
2022-09-20T03:07:13.356Z,14.13
2022-09-20T03:09:49.134Z,15.00
2022-09-20T03:12:27.344Z,19.58
2022-09-20T03:15:06.383Z,16.05
2022-09-20T03:17:45.248Z,16.98
2022-09-20T03:20:25.625Z,13.27
2022-09-20T03:23:02.047Z,22.80
2022-09-20T03:25:46.910Z,14.57
2022-09-20T03:28:30.852Z,21.13
2022-09-20T03:31:05.735Z,13.07
2022-09-20T03:33:46.436Z,12.68
2022-09-20T03:36:30.546Z,21.77
2022-09-20T03:39:26.212Z,17.08
2022-09-20T03:42:16.537Z,16.00
2022-09-20T03:45:17.086Z,15.95
2022-09-20T03:48:16.544Z,21.35
2022-09-20T03:50:50.927Z,20.13
2022-09-20T03:53:34.866Z,17.88
2022-09-20T03:56:50.900Z,22.52
2022-09-20T03:59:37.132Z,13.23
2022-09-20T04:02:25.201Z,13.23
2022-09-20T04:04:58.504Z,15.38
2022-09-20T04:07:41.312Z,16.90
2022-09-20T04:10:19.998Z,24.77
2022-09-20T04:13:01.445Z,15.38
2022-09-20T04:15:38.377Z,14.25
2022-09-20T04:18:13.604Z,20.63
2022-09-20T04:20:46.760Z,14.25
2022-09-20T04:23:26.634Z,16.00
2022-09-20T04:25:54.404Z,18.75
2022-09-20T04:28:27.788Z,17.95
2022-09-20T04:31:15.424Z,21.77
2022-09-20T04:33:49.413Z,20.75
2022-09-20T04:36:31.477Z,17.25
2022-09-20T04:39:10.204Z,21.38
2022-09-20T04:42:05.241Z,12.90
2022-09-20T04:45:05.262Z,16.60
2022-09-20T04:48:06.645Z,11.90
2022-09-20T04:50:57.795Z,15.68
2022-09-20T04:53:52.181Z,12.30
2022-09-20T04:56:22.708Z,20.60
2022-09-20T04:59:07.837Z,19.00
2022-09-20T05:02:12.054Z,19.60
2022-09-20T05:05:22.995Z,16.00
2022-09-20T05:08:21.740Z,17.48
2022-09-20T05:11:09.645Z,19.50
2022-09-20T05:13:57.000Z,20.42
2022-09-20T05:16:41.971Z,21.35
2022-09-20T05:19:29.631Z,17.67
2022-09-20T05:22:25.478Z,41.22
2022-09-20T05:25:12.155Z,21.92
2022-09-20T05:27:46.030Z,21.17
2022-09-20T05:30:22.918Z,25.77
2022-09-20T05:33:01.843Z,29.55
2022-09-20T05:35:34.594Z,13.30
2022-09-20T05:38:20.294Z,28.88
2022-09-20T05:41:04.906Z,15.70
2022-09-20T05:43:35.347Z,22.40
2022-09-20T05:46:17.564Z,13.05
2022-09-20T05:48:57.781Z,23.83
2022-09-20T05:51:37.327Z,25.45
2022-09-20T05:54:28.951Z,21.55
2022-09-20T05:57:06.051Z,19.90
2022-09-20T05:59:47.342Z,22.00
2022-09-20T06:02:25.371Z,22.05
2022-09-20T06:05:01.858Z,28.15
2022-09-20T06:07:40.605Z,26.10
2022-09-20T06:10:39.773Z,22.42
2022-09-20T06:13:24.168Z,21.73
2022-09-20T06:15:59.074Z,21.73
2022-09-20T06:18:31.320Z,29.70
2022-09-20T06:21:08.168Z,20.13
2022-09-20T06:23:36.908Z,23.50
2022-09-20T06:26:11.831Z,19.00
2022-09-20T06:28:42.215Z,15.70
2022-09-20T06:31:11.511Z,21.30
2022-09-20T06:33:44.252Z,15.60
2022-09-20T06:36:48.483Z,17.42
2022-09-20T06:39:46.724Z,14.50
2022-09-20T06:42:15.759Z,11.80
2022-09-20T06:44:43.407Z,18.33
2022-09-20T06:47:12.106Z,9.73
2022-09-20T06:49:41.747Z,11.13
2022-09-20T06:52:14.436Z,8.07
2022-09-20T06:54:46.103Z,13.60
2022-09-20T06:57:18.114Z,10.87
2022-09-20T06:59:45.730Z,9.20
2022-09-20T07:02:13.417Z,11.13
2022-09-20T07:04:41.077Z,8.10
2022-09-20T07:07:09.919Z,10.60
2022-09-20T07:09:37.656Z,8.70
2022-09-20T07:12:06.242Z,9.77
2022-09-20T07:14:35.131Z,9.47
2022-09-20T07:17:03.325Z,9.87
2022-09-20T07:19:31.067Z,9.10
2022-09-20T07:21:58.758Z,11.37
2022-09-20T07:24:26.585Z,14.00
2022-09-20T07:26:59.096Z,11.40
2022-09-20T07:29:27.083Z,13.27
2022-09-20T07:31:56.847Z,15.60
2022-09-20T07:34:24.443Z,8.47
2022-09-20T07:36:52.260Z,13.80
2022-09-20T07:39:20.060Z,14.33
2022-09-20T07:41:50.704Z,9.63
2022-09-20T07:44:24.274Z,11.90
2022-09-20T07:46:52.673Z,13.93
2022-09-20T07:49:22.521Z,19.27
2022-09-20T07:51:50.791Z,10.50
2022-09-20T07:54:18.873Z,10.27
2022-09-20T07:56:47.048Z,10.27
2022-09-20T07:59:15.338Z,10.87
2022-09-20T08:01:43.701Z,10.47
2022-09-20T08:04:11.522Z,8.47
2022-09-20T08:06:42.570Z,10.67
2022-09-20T08:09:11.579Z,8.53
2022-09-20T08:11:40.450Z,8.37
2022-09-20T08:14:09.367Z,12.07
2022-09-20T08:16:40.238Z,8.20
2022-09-20T08:19:08.306Z,14.77
2022-09-20T08:21:37.974Z,9.90
2022-09-20T08:24:07.454Z,12.27
2022-09-20T08:26:36.499Z,11.43
2022-09-20T08:29:06.251Z,10.90
2022-09-20T08:31:36.775Z,10.00
2022-09-20T08:34:06.454Z,10.97
2022-09-20T08:36:36.934Z,7.50
2022-09-20T08:41:56.635Z,5.60
2022-09-20T08:44:34.798Z,6.60
2022-09-20T08:47:07.567Z,6.20
2022-09-20T08:49:35.263Z,7.17
2022-09-20T08:52:10.282Z,7.67
2022-09-20T08:54:38.204Z,4.83
2022-09-20T08:57:15.108Z,6.40
2022-09-20T08:59:43.035Z,10.17
2022-09-20T09:02:17.079Z,7.80
2022-09-20T09:04:45.251Z,11.80
2022-09-20T09:07:15.158Z,7.83
2022-09-20T09:09:46.501Z,12.93
2022-09-20T09:12:24.383Z,10.43
2022-09-20T09:14:55.158Z,4.20
2022-09-20T09:17:27.561Z,12.70
2022-09-20T09:19:57.380Z,6.13
2022-09-20T09:22:32.711Z,11.83
2022-09-20T09:25:26.721Z,9.57
2022-09-20T09:27:58.012Z,5.47
2022-09-20T09:30:28.611Z,9.83
2022-09-20T09:33:19.043Z,15.30
2022-09-20T09:35:54.757Z,7.00
2022-09-20T09:38:24.640Z,5.87
2022-09-20T09:40:54.709Z,10.77
2022-09-20T09:43:27.195Z,7.00
2022-09-20T09:45:55.649Z,6.07
2022-09-20T09:48:26.791Z,9.47
2022-09-20T09:51:09.785Z,9.60
2022-09-20T09:53:38.245Z,12.57
2022-09-20T09:56:27.042Z,6.50
2022-09-20T09:59:13.365Z,6.57
2022-09-20T10:01:50.124Z,3.97
2022-09-20T10:04:28.921Z,6.27
2022-09-20T10:07:07.280Z,10.60
2022-09-20T10:09:51.982Z,4.77
2022-09-20T10:12:41.794Z,5.90
2022-09-20T10:15:27.365Z,8.33
2022-09-20T10:18:09.746Z,8.80
2022-09-20T10:21:00.495Z,4.30
2022-09-20T10:24:08.866Z,7.17
2022-09-20T10:27:10.154Z,7.90
2022-09-20T10:29:52.943Z,6.50
2022-09-20T10:32:35.332Z,11.50
2022-09-20T10:35:24.211Z,10.30
2022-09-20T10:38:04.445Z,5.10
2022-09-20T10:40:54.292Z,8.80
2022-09-20T10:43:42.151Z,9.10
2022-09-20T10:46:31.740Z,4.70
2022-09-20T10:49:05.818Z,4.40
2022-09-20T10:51:45.461Z,4.17
2022-09-20T10:54:24.832Z,8.87
2022-09-20T10:57:07.565Z,8.73
2022-09-20T10:59:48.181Z,5.10
2022-09-20T11:02:29.429Z,8.20
2022-09-20T11:05:21.639Z,6.20
2022-09-20T11:07:59.990Z,4.33
2022-09-20T11:10:36.111Z,5.53
2022-09-20T11:13:08.756Z,3.00
2022-09-20T11:15:43.437Z,5.67
2022-09-20T11:18:23.574Z,4.23
2022-09-20T11:21:00.457Z,8.57
2022-09-20T11:23:37.864Z,3.17
2022-09-20T11:26:11.263Z,5.17
2022-09-20T11:28:42.840Z,5.73
2022-09-20T11:31:16.729Z,4.37
2022-09-20T11:33:47.928Z,3.20
2022-09-20T11:36:23.347Z,3.10
2022-09-20T11:38:56.567Z,4.10
2022-09-20T11:41:27.297Z,6.97
2022-09-20T11:43:58.298Z,4.03
2022-09-20T11:46:30.991Z,4.03
2022-09-20T11:49:03.078Z,5.00
2022-09-20T11:51:59.901Z,3.27
2022-09-20T11:55:06.784Z,5.10
2022-09-20T11:57:34.819Z,3.40
2022-09-20T12:00:07.851Z,2.80
2022-09-20T12:02:49.981Z,3.63
2022-09-20T12:05:32.127Z,5.90
2022-09-20T12:08:03.214Z,2.50
2022-09-20T12:10:35.204Z,3.60
2022-09-20T12:13:05.547Z,2.80
2022-09-20T12:15:36.239Z,2.60
2022-09-20T12:18:28.671Z,5.87
2022-09-20T12:21:08.990Z,14.17
2022-09-20T12:24:19.087Z,1.97
2022-09-20T12:26:51.184Z,3.23
2022-09-20T12:29:54.296Z,4.80
2022-09-20T12:32:54.970Z,4.33
2022-09-20T12:35:56.862Z,4.10
2022-09-20T12:38:57.762Z,2.47
2022-09-20T12:41:28.738Z,5.40
2022-09-20T12:44:02.557Z,3.33
2022-09-20T12:46:38.095Z,3.73
2022-09-20T12:49:59.226Z,1.97
2022-09-20T12:52:48.815Z,4.20
2022-09-20T12:55:31.054Z,3.63
2022-09-20T12:58:02.944Z,4.27
2022-09-20T13:00:38.827Z,3.50
2022-09-20T13:03:23.825Z,6.90
2022-09-20T13:06:12.401Z,4.60
2022-09-20T13:08:43.984Z,5.03
2022-09-20T13:11:17.278Z,7.90
2022-09-20T13:13:49.792Z,2.77
2022-09-20T13:16:23.755Z,8.10
2022-09-20T13:18:58.833Z,4.40
2022-09-20T13:21:27.849Z,4.50
2022-09-20T13:23:56.318Z,5.40
2022-09-20T13:26:30.338Z,6.17
2022-09-20T13:28:59.340Z,7.10
2022-09-20T13:31:33.568Z,2.93
2022-09-20T13:34:22.377Z,3.23
2022-09-20T13:36:56.363Z,5.53
2022-09-20T13:39:32.494Z,5.63
2022-09-20T13:42:03.191Z,4.30
2022-09-20T13:44:34.287Z,2.07
2022-09-20T13:47:21.722Z,2.67
2022-09-20T13:49:50.598Z,4.67
2022-09-20T13:52:26.513Z,2.90
2022-09-20T13:54:55.239Z,2.40
2022-09-20T13:57:27.064Z,5.43
2022-09-20T13:59:57.000Z,2.33
2022-09-20T14:02:29.940Z,4.67
2022-09-20T14:05:01.393Z,4.17
2022-09-20T14:07:30.958Z,4.67
2022-09-20T14:09:59.500Z,2.63
2022-09-20T14:12:28.402Z,3.40
2022-09-20T14:14:56.710Z,1.70
2022-09-20T14:17:28.986Z,4.80
2022-09-20T14:19:57.557Z,2.73
2022-09-20T14:22:27.506Z,1.80
2022-09-20T14:25:01.290Z,3.40
2022-09-20T14:27:31.087Z,2.77
2022-09-20T14:29:59.318Z,3.33
2022-09-20T14:32:40.873Z,3.87
2022-09-20T14:35:16.238Z,2.57
2022-09-20T14:37:46.691Z,2.10
2022-09-20T14:40:22.403Z,2.27
2022-09-20T14:42:53.471Z,3.40
2022-09-20T14:45:25.124Z,4.90
2022-09-20T14:48:06.725Z,4.87
2022-09-20T14:50:39.856Z,3.10
2022-09-20T14:53:27.600Z,5.13
2022-09-20T14:56:00.650Z,3.87
2022-09-20T14:58:28.466Z,4.87
2022-09-20T15:00:59.047Z,3.40
2022-09-20T15:03:31.258Z,5.73
2022-09-20T15:05:59.203Z,5.00
2022-09-20T15:08:27.151Z,6.30
2022-09-20T15:10:54.998Z,3.40
2022-09-20T15:13:22.862Z,4.23
2022-09-20T15:15:52.272Z,6.47
2022-09-20T15:18:22.576Z,6.73
2022-09-20T15:20:52.200Z,10.50
2022-09-20T15:23:20.387Z,2.60
2022-09-20T15:25:51.288Z,2.60
2022-09-20T15:28:19.596Z,5.60
2022-09-20T15:30:48.463Z,3.17
2022-09-20T15:33:16.090Z,7.20
2022-09-20T15:35:44.939Z,6.10
2022-09-20T15:38:15.136Z,4.50
2022-09-20T15:40:43.506Z,2.37
2022-09-20T15:43:15.436Z,1.93
2022-09-20T15:45:50.402Z,5.57
2022-09-20T15:48:21.778Z,1.70
2022-09-20T15:51:03.365Z,5.13
2022-09-20T15:53:34.198Z,4.10
2022-09-20T15:56:03.548Z,3.17
2022-09-20T15:58:35.961Z,3.73
2022-09-20T16:01:06.769Z,3.30
2022-09-20T16:03:34.530Z,3.13
2022-09-20T16:06:04.740Z,1.83
2022-09-20T16:08:34.828Z,5.27
2022-09-20T16:11:04.055Z,7.47
2022-09-20T16:13:31.659Z,2.57
2022-09-20T16:16:00.746Z,6.13
2022-09-20T16:18:47.010Z,2.83
2022-09-20T16:21:16.334Z,5.10
2022-09-20T16:23:48.974Z,3.33
2022-09-20T16:26:16.992Z,4.90
2022-09-20T16:28:47.473Z,3.37
2022-09-20T16:31:34.712Z,4.97
2022-09-20T16:34:03.051Z,3.97
2022-09-20T16:36:34.355Z,10.67
2022-09-20T16:39:03.346Z,5.63
2022-09-20T16:41:32.311Z,5.37
2022-09-20T16:44:00.167Z,3.23
2022-09-20T16:46:28.192Z,7.43
2022-09-20T16:48:56.785Z,3.17
2022-09-20T16:51:26.584Z,2.93
2022-09-20T16:53:55.997Z,5.87
2022-09-20T16:56:27.313Z,3.27
2022-09-20T16:58:55.582Z,6.60
2022-09-20T17:01:24.052Z,3.73
2022-09-20T17:03:51.818Z,2.93
2022-09-20T17:06:19.926Z,5.37
2022-09-20T17:08:48.695Z,5.20
2022-09-20T17:11:20.356Z,3.27
2022-09-20T17:13:51.285Z,6.87
2022-09-20T17:16:20.854Z,4.53
2022-09-20T17:18:53.959Z,6.27
2022-09-20T17:21:23.185Z,5.63
2022-09-20T17:23:55.113Z,5.10
2022-09-20T17:26:24.562Z,3.83
2022-09-20T17:28:58.208Z,5.33
2022-09-20T17:31:29.221Z,2.60
2022-09-20T17:33:59.953Z,4.67
2022-09-20T17:36:30.150Z,8.47
2022-09-20T17:39:03.854Z,3.83
2022-09-20T17:41:33.627Z,4.53
2022-09-20T17:44:07.890Z,7.67
2022-09-20T17:46:37.080Z,5.17
2022-09-20T17:49:06.855Z,4.77
2022-09-20T17:51:36.750Z,4.70
2022-09-20T17:54:05.103Z,4.37
2022-09-20T17:56:33.371Z,6.10
2022-09-20T17:59:03.993Z,4.77
2022-09-20T18:01:33.504Z,6.83
2022-09-20T18:04:03.127Z,4.37
2022-09-20T18:06:33.004Z,4.43
2022-09-20T18:09:02.546Z,3.00
2022-09-20T18:11:32.575Z,5.30
2022-09-20T18:14:02.400Z,6.63
2022-09-20T18:16:31.757Z,3.97
2022-09-20T18:18:59.987Z,5.70
2022-09-20T18:21:29.247Z,5.17
2022-09-20T18:23:57.392Z,6.33
2022-09-20T18:26:27.589Z,6.97
2022-09-20T18:29:01.378Z,6.80
2022-09-20T18:31:33.337Z,5.20
2022-09-20T18:34:01.549Z,5.50
2022-09-20T18:36:30.754Z,3.93
2022-09-20T18:38:59.499Z,3.90
2022-09-20T18:41:28.529Z,5.27
2022-09-20T18:43:57.082Z,4.77
2022-09-20T18:46:26.811Z,11.23
2022-09-20T18:48:57.549Z,3.60
2022-09-20T18:51:26.158Z,6.80
2022-09-20T18:53:53.860Z,2.90
2022-09-20T18:56:24.338Z,8.87
2022-09-20T18:58:53.571Z,5.67
2022-09-20T19:01:59.063Z,9.93
2022-09-20T19:04:40.342Z,3.23
2022-09-20T19:07:16.804Z,5.17
2022-09-20T19:09:50.716Z,5.47
2022-09-20T19:12:22.713Z,5.17
2022-09-20T19:15:15.610Z,5.43
2022-09-20T19:17:57.827Z,6.40
2022-09-20T19:20:33.930Z,5.33
2022-09-20T19:23:12.279Z,5.40
2022-09-20T19:25:43.974Z,8.43
2022-09-20T19:28:13.704Z,5.43
2022-09-20T19:30:42.639Z,13.93
2022-09-20T19:33:16.628Z,4.80
2022-09-20T19:35:50.517Z,5.13
2022-09-20T19:38:35.234Z,5.67
2022-09-20T19:41:18.030Z,5.47
2022-09-20T19:43:57.790Z,4.60
2022-09-20T19:46:39.946Z,5.50
2022-09-20T19:49:14.250Z,6.40
2022-09-20T19:51:45.458Z,7.67
2022-09-20T19:54:15.781Z,5.40
2022-09-20T19:56:52.868Z,3.87
2022-09-20T19:59:21.854Z,5.23
2022-09-20T20:01:50.035Z,9.30
2022-09-20T20:04:17.775Z,5.03
2022-09-20T20:06:55.689Z,6.47
2022-09-20T20:09:31.644Z,7.00
2022-09-20T20:12:05.066Z,7.90
2022-09-20T20:14:41.228Z,8.00
2022-09-20T20:17:21.769Z,7.27
2022-09-20T20:20:03.705Z,8.27
2022-09-20T20:22:55.574Z,9.63
2022-09-20T20:25:29.981Z,8.50
2022-09-20T20:27:57.710Z,6.73
2022-09-20T20:30:25.662Z,8.13
2022-09-20T20:32:57.890Z,5.43
2022-09-20T20:35:26.513Z,12.27
2022-09-20T20:37:55.439Z,6.30
2022-09-20T20:40:23.112Z,6.10
2022-09-20T20:42:57.046Z,5.97
2022-09-20T20:45:24.667Z,4.47
2022-09-20T20:47:57.925Z,10.70
2022-09-20T20:50:25.782Z,4.77
2022-09-20T20:52:55.556Z,6.30
2022-09-20T20:55:23.832Z,10.20
2022-09-20T20:57:57.992Z,7.20
2022-09-20T21:00:26.083Z,7.43
2022-09-20T21:02:58.359Z,10.30
2022-09-20T21:05:26.111Z,9.65
2022-09-20T21:07:56.302Z,16.40
2022-09-20T21:10:24.139Z,13.70
2022-09-20T21:12:55.176Z,20.90
2022-09-20T21:15:22.867Z,10.10
2022-09-20T21:17:54.074Z,8.65
2022-09-20T21:20:22.358Z,10.00
2022-09-20T21:22:50.039Z,9.20
2022-09-20T21:25:19.009Z,9.35
2022-09-20T21:27:46.584Z,9.57
2022-09-20T21:30:15.175Z,14.38
2022-09-20T21:32:42.764Z,9.00
2022-09-20T21:35:10.455Z,10.40
2022-09-20T21:37:38.080Z,10.20
2022-09-20T21:40:07.264Z,10.90
2022-09-20T21:42:36.286Z,8.70
2022-09-20T21:45:04.060Z,12.27
2022-09-20T21:47:31.776Z,14.27
2022-09-20T21:49:59.787Z,10.13
2022-09-20T21:52:27.504Z,8.93
2022-09-20T21:54:55.273Z,13.00
2022-09-20T21:57:22.877Z,10.00
2022-09-20T21:59:52.256Z,9.50
2022-09-20T22:02:19.878Z,8.05
2022-09-20T22:04:47.481Z,7.85
2022-09-20T22:07:15.842Z,12.00
2022-09-20T22:09:43.502Z,9.43
2022-09-20T22:12:11.208Z,8.05
2022-09-20T22:14:39.859Z,7.15
2022-09-20T22:17:09.405Z,10.88
2022-09-20T22:19:37.659Z,12.23
2022-09-20T22:22:05.516Z,10.13
2022-09-20T22:24:33.160Z,7.65
2022-09-20T22:27:00.745Z,10.48
2022-09-20T22:29:28.330Z,8.25
2022-09-20T22:31:56.047Z,8.10
2022-09-20T22:34:25.229Z,10.07
2022-09-20T22:36:53.783Z,9.10
2022-09-20T22:39:21.391Z,11.98
2022-09-20T22:41:49.591Z,7.60
2022-09-20T22:44:17.408Z,8.05
2022-09-20T22:46:45.015Z,9.38
2022-09-20T22:49:12.725Z,8.68
2022-09-20T22:51:41.668Z,9.70
2022-09-20T22:54:10.826Z,12.60
2022-09-20T22:56:39.560Z,10.30
2022-09-20T22:59:09.109Z,8.70
2022-09-20T23:01:38.626Z,12.75
2022-09-20T23:04:08.551Z,9.15
2022-09-20T23:06:38.297Z,20.60
2022-09-20T23:09:09.740Z,16.23
2022-09-20T23:11:38.416Z,8.07
2022-09-20T23:14:06.915Z,9.13
2022-09-20T23:16:36.508Z,7.88
2022-09-20T23:19:06.599Z,8.85
2022-09-20T23:21:35.040Z,10.05
2022-09-20T23:24:05.223Z,7.03
2022-09-20T23:26:35.709Z,7.75
2022-09-20T23:29:06.157Z,11.85
2022-09-20T23:31:35.455Z,12.10
2022-09-20T23:34:05.102Z,7.40
2022-09-20T23:36:34.837Z,10.23
2022-09-20T23:39:02.540Z,8.30
2022-09-20T23:41:30.681Z,8.73
2022-09-20T23:43:59.709Z,11.68
2022-09-20T23:46:28.041Z,9.27
2022-09-20T23:48:55.684Z,9.13
2022-09-20T23:51:25.072Z,8.65
2022-09-20T23:53:53.579Z,6.80
2022-09-20T23:56:22.009Z,8.52
2022-09-20T23:58:50.079Z,10.27
